Bookmark and Share
Track history (hours):
 

Rhonda Lamulle

More information available from US FCC via Universal Licensing System and Coast Guard Vessel Documentation Center.

Last reported at 2014-Apr-19 12:14 UTC. Time now 2014-Apr-23 13:03 UTC.
Position N 30°24' W 086°42'.

Length 27 m; draft 3 m.

Type: Towing. MMSI: 367087160.

NotesDate/timePositionNaut miles runAvg speedWind from/ knotsBaromVisibWave heightAir tempDewpointWater temp
2014-Apr-19 12:14N 30°24' W 086°42'0 0.0
2014-Apr-19 07:26N 30°24' W 086°42'0 0.0
2014-Apr-19 06:33N 30°24' W 086°42'0 0.0
2014-Apr-19 03:27N 30°24' W 086°42'0 0.0
2014-Apr-19 02:17N 30°24' W 086°42'0 0.0
2014-Apr-19 01:33N 30°24' W 086°42'0 0.0
2014-Apr-18 21:20N 30°24' W 086°42'0 0.0
2014-Apr-18 20:33N 30°24' W 086°42'0 0.0
2014-Apr-18 17:27N 30°24' W 086°42'0 0.0
2014-Apr-18 16:34N 30°24' W 086°42'0 0.0
2014-Apr-18 15:34N 30°24' W 086°42'0 0.0
2014-Apr-18 13:26N 30°24' W 086°42'0 0.0
2014-Apr-18 12:23N 30°24' W 086°42'0 0.0
2014-Apr-18 11:05N 30°24' W 086°42'0 0.0
2014-Apr-18 08:34N 30°24' W 086°42'0 0.0
2014-Apr-18 06:34N 30°24' W 086°42'0 0.0
2014-Apr-18 04:19N 30°24' W 086°42'0 0.0
2014-Apr-18 01:05N 30°24' W 086°42'0 0.0
2014-Apr-18 00:13N 30°24' W 086°42'0 0.0
2014-Apr-17 23:22N 30°24' W 086°42'0 0.0
2014-Apr-17 20:16N 30°24' W 086°42'0 0.0
2014-Apr-17 19:33N 30°24' W 086°42'0 0.0
2014-Apr-17 17:16N 30°24' W 086°42'0 0.0
2014-Apr-17 13:21N 30°24' W 086°42'0 0.0
2014-Apr-17 12:18N 30°24' W 086°42'0 0.0
2014-Apr-17 11:04N 30°24' W 086°42'0 0.0
2014-Apr-17 08:31N 30°24' W 086°42'0 0.0
2014-Apr-17 07:12N 30°24' W 086°42'0 0.0
2014-Apr-17 06:17N 30°24' W 086°42'0 0.0
2014-Apr-17 03:31N 30°24' W 086°42'0 0.0
2014-Apr-17 02:34N 30°24' W 086°42'0 0.0
2014-Apr-17 01:34N 30°24' W 086°42'2 2.4
2014-Apr-17 00:34N 30°24' W 086°39'6 6.1
2014-Apr-16 23:34N 30°25' W 086°32'5 5.5
2014-Apr-16 22:34N 30°29' W 086°29'1 0.5
2014-Apr-16 21:33N 30°29' W 086°29'0 0.0
2014-Apr-16 20:34N 30°29' W 086°29'0 0.0
2014-Apr-16 19:34N 30°29' W 086°29'0 0.0
2014-Apr-16 18:34N 30°29' W 086°29'0 0.0
2014-Apr-16 17:33N 30°29' W 086°29'0 0.0
2014-Apr-16 16:34N 30°29' W 086°29'0 0.0
2014-Apr-16 15:33N 30°29' W 086°29'0 0.0
2014-Apr-16 14:34N 30°29' W 086°29'0 0.0
2014-Apr-16 13:33N 30°29' W 086°29'0 0.0
2014-Apr-16 12:34N 30°29' W 086°29'0 0.0
2014-Apr-16 11:33N 30°29' W 086°29'0 0.0
2014-Apr-16 10:33N 30°29' W 086°29'0 0.0
2014-Apr-16 09:34N 30°29' W 086°29'0 0.0
2014-Apr-16 08:34N 30°29' W 086°29'0 0.0
2014-Apr-16 07:33N 30°29' W 086°29'0 0.0
2014-Apr-16 06:34N 30°29' W 086°29'0 0.0
2014-Apr-16 05:33N 30°29' W 086°29'0 0.0
2014-Apr-16 04:34N 30°29' W 086°29'0 0.0
2014-Apr-16 03:34N 30°29' W 086°29'0 0.0
2014-Apr-16 02:33N 30°29' W 086°29'0 0.0
2014-Apr-16 01:33N 30°29' W 086°29'0 0.1
2014-Apr-16 00:33N 30°29' W 086°29'4 4.2
2014-Apr-15 23:33N 30°26' W 086°26'6 6.5
2014-Apr-15 22:34N 30°26' W 086°18'6 5.9
2014-Apr-15 21:32N 30°25' W 086°11'37 1.5
2014-Apr-14 20:32N 30°06' W 085°35'69 3.1
2014-Apr-13 22:34N 30°24' W 086°52'5 5.2
2014-Apr-13 21:33N 30°23' W 086°58'5 5.4
2014-Apr-13 20:33N 30°22' W 087°04'  
2014-Apr-11 08:14N 29°56' W 089°60'  

Dump ship's entire track history

sailing weather and tide predictions

Rhonda Lamulle — WDC8441 — position and weather